sensor_id;sensor_type;location;lat;lon;timestamp;temperature;humidity
52859;DHT22;38721;53.098;6.596;2022-07-29T00:00:04;14.70;99.90
52859;DHT22;38721;53.098;6.596;2022-07-29T00:02:30;14.70;99.90
52859;DHT22;38721;53.098;6.596;2022-07-29T00:04:57;14.70;99.90
52859;DHT22;38721;53.098;6.596;2022-07-29T00:07:23;14.80;99.90
52859;DHT22;38721;53.098;6.596;2022-07-29T00:09:49;14.80;99.90
52859;DHT22;38721;53.098;6.596;2022-07-29T00:12:15;14.70;99.90
52859;DHT22;38721;53.098;6.596;2022-07-29T00:14:41;14.70;99.90
52859;DHT22;38721;53.098;6.596;2022-07-29T00:17:06;14.70;99.90
52859;DHT22;38721;53.098;6.596;2022-07-29T00:19:32;14.70;99.90
52859;DHT22;38721;53.098;6.596;2022-07-29T00:21:59;14.70;99.90
52859;DHT22;38721;53.098;6.596;2022-07-29T00:24:25;14.80;99.90
52859;DHT22;38721;53.098;6.596;2022-07-29T00:26:51;14.80;99.90
52859;DHT22;38721;53.098;6.596;2022-07-29T00:29:17;14.70;99.90
52859;DHT22;38721;53.098;6.596;2022-07-29T00:31:43;14.70;99.90
52859;DHT22;38721;53.098;6.596;2022-07-29T00:34:09;14.70;99.90
52859;DHT22;38721;53.098;6.596;2022-07-29T00:36:55;14.80;99.90
52859;DHT22;38721;53.098;6.596;2022-07-29T00:39:20;14.80;99.90
52859;DHT22;38721;53.098;6.596;2022-07-29T00:41:46;14.80;99.90
52859;DHT22;38721;53.098;6.596;2022-07-29T00:44:12;14.80;99.90
52859;DHT22;38721;53.098;6.596;2022-07-29T00:46:38;14.80;99.90
52859;DHT22;38721;53.098;6.596;2022-07-29T00:49:03;14.80;99.90
52859;DHT22;38721;53.098;6.596;2022-07-29T00:51:34;14.80;99.90
52859;DHT22;38721;53.098;6.596;2022-07-29T00:54:01;14.80;99.90
52859;DHT22;38721;53.098;6.596;2022-07-29T00:56:26;14.90;99.90
52859;DHT22;38721;53.098;6.596;2022-07-29T00:58:57;14.90;99.90
52859;DHT22;38721;53.098;6.596;2022-07-29T01:01:23;14.90;99.90
52859;DHT22;38721;53.098;6.596;2022-07-29T01:03:49;14.90;99.90
52859;DHT22;38721;53.098;6.596;2022-07-29T01:06:17;14.90;99.90
52859;DHT22;38721;53.098;6.596;2022-07-29T01:08:44;14.90;99.90
52859;DHT22;38721;53.098;6.596;2022-07-29T01:11:10;14.90;99.90
52859;DHT22;38721;53.098;6.596;2022-07-29T01:13:36;14.90;99.90
52859;DHT22;38721;53.098;6.596;2022-07-29T01:16:23;14.90;99.90
52859;DHT22;38721;53.098;6.596;2022-07-29T01:18:54;14.90;99.90
52859;DHT22;38721;53.098;6.596;2022-07-29T01:29:49;14.80;99.90
52859;DHT22;38721;53.098;6.596;2022-07-29T01:32:24;14.90;99.90
52859;DHT22;38721;53.098;6.596;2022-07-29T01:37:39;14.80;99.90
52859;DHT22;38721;53.098;6.596;2022-07-29T01:40:17;14.80;99.90
52859;DHT22;38721;53.098;6.596;2022-07-29T01:42:49;14.80;99.90
52859;DHT22;38721;53.098;6.596;2022-07-29T01:45:20;14.80;99.90
52859;DHT22;38721;53.098;6.596;2022-07-29T01:50:17;14.90;99.90
52859;DHT22;38721;53.098;6.596;2022-07-29T01:52:52;14.80;99.90
52859;DHT22;38721;53.098;6.596;2022-07-29T01:55:22;14.80;99.90
52859;DHT22;38721;53.098;6.596;2022-07-29T01:57:50;14.90;99.90
52859;DHT22;38721;53.098;6.596;2022-07-29T02:00:17;14.90;99.90
52859;DHT22;38721;53.098;6.596;2022-07-29T02:02:45;14.90;99.90
52859;DHT22;38721;53.098;6.596;2022-07-29T02:05:15;14.90;99.90
52859;DHT22;38721;53.098;6.596;2022-07-29T02:07:43;14.90;99.90
52859;DHT22;38721;53.098;6.596;2022-07-29T02:10:11;14.90;99.90
52859;DHT22;38721;53.098;6.596;2022-07-29T02:12:39;15.00;99.90
52859;DHT22;38721;53.098;6.596;2022-07-29T02:15:06;14.90;99.90
52859;DHT22;38721;53.098;6.596;2022-07-29T02:17:42;14.90;99.90
52859;DHT22;38721;53.098;6.596;2022-07-29T02:20:09;14.90;99.90
52859;DHT22;38721;53.098;6.596;2022-07-29T02:22:37;14.90;99.90
52859;DHT22;38721;53.098;6.596;2022-07-29T02:25:05;15.00;99.90
52859;DHT22;38721;53.098;6.596;2022-07-29T02:27:33;15.00;99.90
52859;DHT22;38721;53.098;6.596;2022-07-29T02:30:01;14.90;99.90
52859;DHT22;38721;53.098;6.596;2022-07-29T02:32:31;14.90;99.90
52859;DHT22;38721;53.098;6.596;2022-07-29T02:34:58;15.00;99.90
52859;DHT22;38721;53.098;6.596;2022-07-29T02:37:25;15.00;99.90
52859;DHT22;38721;53.098;6.596;2022-07-29T02:39:53;15.00;99.90
52859;DHT22;38721;53.098;6.596;2022-07-29T02:42:22;15.00;99.90
52859;DHT22;38721;53.098;6.596;2022-07-29T02:44:49;15.00;99.90
52859;DHT22;38721;53.098;6.596;2022-07-29T02:50:18;14.90;99.90
52859;DHT22;38721;53.098;6.596;2022-07-29T02:52:52;14.90;99.90
52859;DHT22;38721;53.098;6.596;2022-07-29T02:57:58;14.90;99.90
52859;DHT22;38721;53.098;6.596;2022-07-29T03:00:31;14.90;99.90
52859;DHT22;38721;53.098;6.596;2022-07-29T03:03:00;14.90;99.90
52859;DHT22;38721;53.098;6.596;2022-07-29T03:05:26;14.80;99.90
52859;DHT22;38721;53.098;6.596;2022-07-29T03:08:02;14.80;99.90
52859;DHT22;38721;53.098;6.596;2022-07-29T03:10:30;14.80;99.90
52859;DHT22;38721;53.098;6.596;2022-07-29T03:12:57;14.80;99.90
52859;DHT22;38721;53.098;6.596;2022-07-29T03:15:24;14.80;99.90
52859;DHT22;38721;53.098;6.596;2022-07-29T03:17:50;14.80;99.90
52859;DHT22;38721;53.098;6.596;2022-07-29T03:20:17;14.80;99.90
52859;DHT22;38721;53.098;6.596;2022-07-29T03:22:44;14.80;99.90
52859;DHT22;38721;53.098;6.596;2022-07-29T03:25:19;14.80;99.90
52859;DHT22;38721;53.098;6.596;2022-07-29T03:27:46;14.80;99.90
52859;DHT22;38721;53.098;6.596;2022-07-29T03:30:13;14.80;99.90
52859;DHT22;38721;53.098;6.596;2022-07-29T03:32:39;14.80;99.90
52859;DHT22;38721;53.098;6.596;2022-07-29T03:35:05;14.80;99.90
52859;DHT22;38721;53.098;6.596;2022-07-29T03:37:32;14.80;99.90
52859;DHT22;38721;53.098;6.596;2022-07-29T03:40:00;14.80;99.90
52859;DHT22;38721;53.098;6.596;2022-07-29T03:42:28;14.80;99.90
52859;DHT22;38721;53.098;6.596;2022-07-29T03:44:57;14.80;99.90
52859;DHT22;38721;53.098;6.596;2022-07-29T03:47:27;14.80;99.90
52859;DHT22;38721;53.098;6.596;2022-07-29T03:50:08;14.80;99.90
52859;DHT22;38721;53.098;6.596;2022-07-29T03:52:34;14.80;99.90
52859;DHT22;38721;53.098;6.596;2022-07-29T03:55:01;14.80;99.90
52859;DHT22;38721;53.098;6.596;2022-07-29T03:57:29;14.80;99.90
52859;DHT22;38721;53.098;6.596;2022-07-29T03:59:56;14.80;99.90
52859;DHT22;38721;53.098;6.596;2022-07-29T04:02:23;14.80;99.90
52859;DHT22;38721;53.098;6.596;2022-07-29T04:04:51;14.80;99.90
52859;DHT22;38721;53.098;6.596;2022-07-29T04:07:17;14.80;99.90
52859;DHT22;38721;53.098;6.596;2022-07-29T04:09:43;14.80;99.90
52859;DHT22;38721;53.098;6.596;2022-07-29T04:12:09;14.90;99.90
52859;DHT22;38721;53.098;6.596;2022-07-29T04:14:35;14.90;99.90
52859;DHT22;38721;53.098;6.596;2022-07-29T04:17:03;14.80;99.90
52859;DHT22;38721;53.098;6.596;2022-07-29T04:19:29;14.80;99.90
52859;DHT22;38721;53.098;6.596;2022-07-29T04:21:56;14.90;99.90
52859;DHT22;38721;53.098;6.596;2022-07-29T04:24:22;14.90;99.90
52859;DHT22;38721;53.098;6.596;2022-07-29T04:26:48;14.90;99.90
52859;DHT22;38721;53.098;6.596;2022-07-29T04:29:14;15.00;99.90
52859;DHT22;38721;53.098;6.596;2022-07-29T04:31:41;15.00;99.90
52859;DHT22;38721;53.098;6.596;2022-07-29T04:34:07;15.00;99.90
52859;DHT22;38721;53.098;6.596;2022-07-29T04:36:33;15.10;99.90
52859;DHT22;38721;53.098;6.596;2022-07-29T04:38:58;15.10;99.90
52859;DHT22;38721;53.098;6.596;2022-07-29T04:41:24;15.10;99.90
52859;DHT22;38721;53.098;6.596;2022-07-29T04:43:50;15.10;99.90
52859;DHT22;38721;53.098;6.596;2022-07-29T04:46:15;15.10;99.90
52859;DHT22;38721;53.098;6.596;2022-07-29T04:48:41;15.20;99.90
52859;DHT22;38721;53.098;6.596;2022-07-29T04:51:10;15.20;99.90
52859;DHT22;38721;53.098;6.596;2022-07-29T04:53:36;15.20;99.90
52859;DHT22;38721;53.098;6.596;2022-07-29T04:56:02;15.20;99.90
52859;DHT22;38721;53.098;6.596;2022-07-29T04:58:28;15.20;99.90
52859;DHT22;38721;53.098;6.596;2022-07-29T05:00:53;15.30;99.90
52859;DHT22;38721;53.098;6.596;2022-07-29T05:03:19;15.30;99.90
52859;DHT22;38721;53.098;6.596;2022-07-29T05:05:45;15.40;99.90
52859;DHT22;38721;53.098;6.596;2022-07-29T05:08:11;15.40;99.90
52859;DHT22;38721;53.098;6.596;2022-07-29T05:10:36;15.40;99.90
52859;DHT22;38721;53.098;6.596;2022-07-29T05:13:07;15.50;99.90
52859;DHT22;38721;53.098;6.596;2022-07-29T05:15:36;15.60;97.70
52859;DHT22;38721;53.098;6.596;2022-07-29T05:18:03;15.60;99.90
52859;DHT22;38721;53.098;6.596;2022-07-29T05:20:30;15.60;88.50
52859;DHT22;38721;53.098;6.596;2022-07-29T05:23:00;15.70;70.00
52859;DHT22;38721;53.098;6.596;2022-07-29T05:25:27;15.70;72.00
52859;DHT22;38721;53.098;6.596;2022-07-29T05:27:53;15.80;53.00
52859;DHT22;38721;53.098;6.596;2022-07-29T05:30:20;15.80;35.20
52859;DHT22;38721;53.098;6.596;2022-07-29T05:32:46;15.90;63.80
52859;DHT22;38721;53.098;6.596;2022-07-29T05:35:13;15.80;65.10
52859;DHT22;38721;53.098;6.596;2022-07-29T05:37:39;15.90;87.30
52859;DHT22;38721;53.098;6.596;2022-07-29T05:40:05;15.90;20.70
52859;DHT22;38721;53.098;6.596;2022-07-29T05:42:31;16.00;17.20
52859;DHT22;38721;53.098;6.596;2022-07-29T05:44:57;16.00;6.80
52859;DHT22;38721;53.098;6.596;2022-07-29T05:47:23;16.00;45.80
52859;DHT22;38721;53.098;6.596;2022-07-29T05:49:49;16.00;5.40
52859;DHT22;38721;53.098;6.596;2022-07-29T05:52:19;16.10;13.30
52859;DHT22;38721;53.098;6.596;2022-07-29T05:54:45;16.10;18.40
52859;DHT22;38721;53.098;6.596;2022-07-29T05:57:21;16.10;1.00
52859;DHT22;38721;53.098;6.596;2022-07-29T05:59:48;16.20;1.00
52859;DHT22;38721;53.098;6.596;2022-07-29T06:02:14;16.30;1.00
52859;DHT22;38721;53.098;6.596;2022-07-29T06:04:40;16.30;1.00
52859;DHT22;38721;53.098;6.596;2022-07-29T06:07:06;16.40;2.30
52859;DHT22;38721;53.098;6.596;2022-07-29T06:09:33;16.40;1.00
52859;DHT22;38721;53.098;6.596;2022-07-29T06:11:58;16.40;1.00
52859;DHT22;38721;53.098;6.596;2022-07-29T06:14:25;16.50;1.00
52859;DHT22;38721;53.098;6.596;2022-07-29T06:16:51;16.50;1.00
52859;DHT22;38721;53.098;6.596;2022-07-29T06:19:18;16.60;1.00
52859;DHT22;38721;53.098;6.596;2022-07-29T06:21:45;16.70;1.00
52859;DHT22;38721;53.098;6.596;2022-07-29T06:24:12;16.70;1.00
52859;DHT22;38721;53.098;6.596;2022-07-29T06:26:41;16.80;1.00
52859;DHT22;38721;53.098;6.596;2022-07-29T06:29:08;16.90;1.00
52859;DHT22;38721;53.098;6.596;2022-07-29T06:31:34;17.00;1.00
52859;DHT22;38721;53.098;6.596;2022-07-29T06:34:00;17.00;1.00
52859;DHT22;38721;53.098;6.596;2022-07-29T06:36:25;17.10;1.00
52859;DHT22;38721;53.098;6.596;2022-07-29T06:38:52;17.20;1.00
52859;DHT22;38721;53.098;6.596;2022-07-29T06:41:18;17.30;1.00
52859;DHT22;38721;53.098;6.596;2022-07-29T06:43:44;17.50;1.00
52859;DHT22;38721;53.098;6.596;2022-07-29T06:46:13;17.30;1.00
52859;DHT22;38721;53.098;6.596;2022-07-29T06:48:40;17.50;99.90
52859;DHT22;38721;53.098;6.596;2022-07-29T06:51:11;17.50;1.00
52859;DHT22;38721;53.098;6.596;2022-07-29T06:53:37;17.50;99.90
52859;DHT22;38721;53.098;6.596;2022-07-29T06:56:04;17.50;1.00
52859;DHT22;38721;53.098;6.596;2022-07-29T06:58:30;17.50;99.90
52859;DHT22;38721;53.098;6.596;2022-07-29T07:00:57;17.60;99.90
52859;DHT22;38721;53.098;6.596;2022-07-29T07:03:23;17.50;99.90
52859;DHT22;38721;53.098;6.596;2022-07-29T07:05:51;17.60;99.90
52859;DHT22;38721;53.098;6.596;2022-07-29T07:08:17;17.70;1.00
52859;DHT22;38721;53.098;6.596;2022-07-29T07:10:43;17.80;99.90
52859;DHT22;38721;53.098;6.596;2022-07-29T07:13:08;17.80;99.90
52859;DHT22;38721;53.098;6.596;2022-07-29T07:15:35;18.00;99.90
52859;DHT22;38721;53.098;6.596;2022-07-29T07:18:01;18.00;99.90
52859;DHT22;38721;53.098;6.596;2022-07-29T07:20:30;18.20;99.90
52859;DHT22;38721;53.098;6.596;2022-07-29T07:22:55;18.30;99.90
52859;DHT22;38721;53.098;6.596;2022-07-29T07:25:21;18.30;99.90
52859;DHT22;38721;53.098;6.596;2022-07-29T07:27:47;18.20;99.90
52859;DHT22;38721;53.098;6.596;2022-07-29T07:30:13;18.30;99.90
52859;DHT22;38721;53.098;6.596;2022-07-29T07:32:39;18.30;99.90
52859;DHT22;38721;53.098;6.596;2022-07-29T07:35:07;18.40;99.90
52859;DHT22;38721;53.098;6.596;2022-07-29T07:37:34;18.50;99.90
52859;DHT22;38721;53.098;6.596;2022-07-29T07:40:00;18.50;99.90
52859;DHT22;38721;53.098;6.596;2022-07-29T07:42:26;18.50;99.90
52859;DHT22;38721;53.098;6.596;2022-07-29T07:44:51;18.40;99.90
52859;DHT22;38721;53.098;6.596;2022-07-29T07:47:18;18.50;99.90
52859;DHT22;38721;53.098;6.596;2022-07-29T07:49:51;18.40;99.90
52859;DHT22;38721;53.098;6.596;2022-07-29T07:52:18;18.50;99.90
52859;DHT22;38721;53.098;6.596;2022-07-29T07:54:44;18.50;99.90
52859;DHT22;38721;53.098;6.596;2022-07-29T07:57:12;18.50;99.90
52859;DHT22;38721;53.098;6.596;2022-07-29T07:59:38;18.30;99.90
52859;DHT22;38721;53.098;6.596;2022-07-29T08:02:07;18.70;99.90
52859;DHT22;38721;53.098;6.596;2022-07-29T08:04:33;18.80;99.90
52859;DHT22;38721;53.098;6.596;2022-07-29T08:06:59;18.70;99.90
52859;DHT22;38721;53.098;6.596;2022-07-29T08:09:26;18.80;99.90
52859;DHT22;38721;53.098;6.596;2022-07-29T08:11:53;18.80;99.90
52859;DHT22;38721;53.098;6.596;2022-07-29T08:14:19;19.10;99.90
52859;DHT22;38721;53.098;6.596;2022-07-29T08:16:44;19.30;99.90
52859;DHT22;38721;53.098;6.596;2022-07-29T08:19:10;19.10;99.90
52859;DHT22;38721;53.098;6.596;2022-07-29T08:21:36;19.30;99.90
52859;DHT22;38721;53.098;6.596;2022-07-29T08:24:02;19.40;99.90
52859;DHT22;38721;53.098;6.596;2022-07-29T08:26:46;19.60;99.90
52859;DHT22;38721;53.098;6.596;2022-07-29T08:29:12;19.60;99.90
52859;DHT22;38721;53.098;6.596;2022-07-29T08:31:39;19.60;99.90
52859;DHT22;38721;53.098;6.596;2022-07-29T08:34:06;19.70;99.90
52859;DHT22;38721;53.098;6.596;2022-07-29T08:36:32;19.90;99.90
52859;DHT22;38721;53.098;6.596;2022-07-29T08:38:59;19.90;99.90
52859;DHT22;38721;53.098;6.596;2022-07-29T08:41:26;19.80;99.90
52859;DHT22;38721;53.098;6.596;2022-07-29T08:43:52;19.70;99.90
52859;DHT22;38721;53.098;6.596;2022-07-29T08:46:18;19.80;99.90
52859;DHT22;38721;53.098;6.596;2022-07-29T08:48:44;19.70;99.90
52859;DHT22;38721;53.098;6.596;2022-07-29T08:51:15;19.80;99.90
52859;DHT22;38721;53.098;6.596;2022-07-29T08:53:46;19.40;99.90
52859;DHT22;38721;53.098;6.596;2022-07-29T08:56:18;19.70;99.90
52859;DHT22;38721;53.098;6.596;2022-07-29T08:58:47;20.10;99.90
52859;DHT22;38721;53.098;6.596;2022-07-29T09:01:20;20.40;99.90
52859;DHT22;38721;53.098;6.596;2022-07-29T09:03:46;20.50;99.90
52859;DHT22;38721;53.098;6.596;2022-07-29T09:06:18;20.20;99.90
52859;DHT22;38721;53.098;6.596;2022-07-29T09:08:45;19.90;99.90
52859;DHT22;38721;53.098;6.596;2022-07-29T09:11:11;20.50;99.90
52859;DHT22;38721;53.098;6.596;2022-07-29T09:13:38;20.50;99.90
52859;DHT22;38721;53.098;6.596;2022-07-29T09:16:04;20.70;99.90
52859;DHT22;38721;53.098;6.596;2022-07-29T09:18:38;20.50;99.90
52859;DHT22;38721;53.098;6.596;2022-07-29T09:21:06;20.50;99.90
52859;DHT22;38721;53.098;6.596;2022-07-29T09:24:12;20.50;99.90
52859;DHT22;38721;53.098;6.596;2022-07-29T09:26:45;20.60;99.90
52859;DHT22;38721;53.098;6.596;2022-07-29T09:29:16;19.90;99.90
52859;DHT22;38721;53.098;6.596;2022-07-29T09:31:44;20.40;99.90
52859;DHT22;38721;53.098;6.596;2022-07-29T09:34:11;20.40;99.90
52859;DHT22;38721;53.098;6.596;2022-07-29T09:36:44;20.70;99.90
52859;DHT22;38721;53.098;6.596;2022-07-29T09:39:10;20.70;99.90
52859;DHT22;38721;53.098;6.596;2022-07-29T09:41:50;20.60;99.90
52859;DHT22;38721;53.098;6.596;2022-07-29T09:44:18;20.60;99.90
52859;DHT22;38721;53.098;6.596;2022-07-29T09:47:02;20.50;99.90
52859;DHT22;38721;53.098;6.596;2022-07-29T09:49:35;20.50;99.90
52859;DHT22;38721;53.098;6.596;2022-07-29T09:52:06;21.10;99.90
52859;DHT22;38721;53.098;6.596;2022-07-29T09:54:32;21.20;99.90
52859;DHT22;38721;53.098;6.596;2022-07-29T09:57:28;21.30;99.90
52859;DHT22;38721;53.098;6.596;2022-07-29T10:00:08;21.10;99.90
52859;DHT22;38721;53.098;6.596;2022-07-29T10:02:36;21.10;99.90
52859;DHT22;38721;53.098;6.596;2022-07-29T10:05:06;21.30;99.90
52859;DHT22;38721;53.098;6.596;2022-07-29T10:10:28;21.00;99.90
52859;DHT22;38721;53.098;6.596;2022-07-29T10:12:56;21.00;99.90
52859;DHT22;38721;53.098;6.596;2022-07-29T10:15:28;20.80;99.90
52859;DHT22;38721;53.098;6.596;2022-07-29T10:17:55;20.90;99.90
52859;DHT22;38721;53.098;6.596;2022-07-29T10:20:22;20.70;99.90
52859;DHT22;38721;53.098;6.596;2022-07-29T10:22:49;21.10;99.90
52859;DHT22;38721;53.098;6.596;2022-07-29T10:25:18;20.70;99.90
52859;DHT22;38721;53.098;6.596;2022-07-29T10:27:45;20.60;99.90
52859;DHT22;38721;53.098;6.596;2022-07-29T10:30:13;20.40;99.90
52859;DHT22;38721;53.098;6.596;2022-07-29T10:38:10;21.40;99.90
52859;DHT22;38721;53.098;6.596;2022-07-29T10:43:28;21.70;99.90
52859;DHT22;38721;53.098;6.596;2022-07-29T10:45:59;21.70;99.90
52859;DHT22;38721;53.098;6.596;2022-07-29T10:48:25;21.70;99.90
52859;DHT22;38721;53.098;6.596;2022-07-29T10:51:01;21.80;99.90
52859;DHT22;38721;53.098;6.596;2022-07-29T10:53:52;21.70;99.90
52859;DHT22;38721;53.098;6.596;2022-07-29T10:56:28;21.80;99.90
52859;DHT22;38721;53.098;6.596;2022-07-29T11:01:54;21.90;99.90
52859;DHT22;38721;53.098;6.596;2022-07-29T11:07:11;22.10;99.90
52859;DHT22;38721;53.098;6.596;2022-07-29T11:09:38;22.50;99.90
52859;DHT22;38721;53.098;6.596;2022-07-29T11:14:56;23.00;99.90
52859;DHT22;38721;53.098;6.596;2022-07-29T11:17:24;22.80;99.90
52859;DHT22;38721;53.098;6.596;2022-07-29T11:19:50;22.70;99.90
52859;DHT22;38721;53.098;6.596;2022-07-29T11:22:33;23.00;99.90
52859;DHT22;38721;53.098;6.596;2022-07-29T11:25:15;23.30;99.90
52859;DHT22;38721;53.098;6.596;2022-07-29T11:27:45;22.90;99.90
52859;DHT22;38721;53.098;6.596;2022-07-29T11:30:13;23.50;99.90
52859;DHT22;38721;53.098;6.596;2022-07-29T11:32:41;23.90;99.90
52859;DHT22;38721;53.098;6.596;2022-07-29T11:35:22;24.00;99.90
52859;DHT22;38721;53.098;6.596;2022-07-29T11:38:25;24.20;99.90
52859;DHT22;38721;53.098;6.596;2022-07-29T11:43:50;24.60;99.90
52859;DHT22;38721;53.098;6.596;2022-07-29T11:49:03;24.90;99.90
52859;DHT22;38721;53.098;6.596;2022-07-29T11:51:30;25.00;99.90
52859;DHT22;38721;53.098;6.596;2022-07-29T11:53:57;24.50;99.90
52859;DHT22;38721;53.098;6.596;2022-07-29T11:56:25;24.80;99.90
52859;DHT22;38721;53.098;6.596;2022-07-29T11:59:04;24.70;99.90
52859;DHT22;38721;53.098;6.596;2022-07-29T12:01:30;24.60;99.90
52859;DHT22;38721;53.098;6.596;2022-07-29T12:04:04;24.70;99.90
52859;DHT22;38721;53.098;6.596;2022-07-29T12:06:30;25.10;99.90
52859;DHT22;38721;53.098;6.596;2022-07-29T12:08:56;24.70;99.90
52859;DHT22;38721;53.098;6.596;2022-07-29T12:11:22;25.00;99.90
52859;DHT22;38721;53.098;6.596;2022-07-29T12:13:49;25.20;99.90
52859;DHT22;38721;53.098;6.596;2022-07-29T12:16:15;25.10;99.20
52859;DHT22;38721;53.098;6.596;2022-07-29T12:18:41;25.10;99.90
52859;DHT22;38721;53.098;6.596;2022-07-29T12:21:07;25.20;99.90
52859;DHT22;38721;53.098;6.596;2022-07-29T12:23:33;25.50;99.90
52859;DHT22;38721;53.098;6.596;2022-07-29T12:25:59;25.20;97.40
52859;DHT22;38721;53.098;6.596;2022-07-29T12:28:25;25.10;94.40
52859;DHT22;38721;53.098;6.596;2022-07-29T12:30:55;25.70;96.10
52859;DHT22;38721;53.098;6.596;2022-07-29T12:36:10;25.90;82.70
52859;DHT22;38721;53.098;6.596;2022-07-29T12:38:36;26.10;91.30
52859;DHT22;38721;53.098;6.596;2022-07-29T12:41:02;26.00;84.10
52859;DHT22;38721;53.098;6.596;2022-07-29T12:43:29;25.60;67.80
52859;DHT22;38721;53.098;6.596;2022-07-29T12:45:56;25.40;63.80
52859;DHT22;38721;53.098;6.596;2022-07-29T12:48:38;25.70;62.10
52859;DHT22;38721;53.098;6.596;2022-07-29T12:51:08;26.50;74.20
52859;DHT22;38721;53.098;6.596;2022-07-29T12:53:36;27.10;70.60
52859;DHT22;38721;53.098;6.596;2022-07-29T12:56:03;26.60;60.00
52859;DHT22;38721;53.098;6.596;2022-07-29T12:58:41;26.70;67.90
52859;DHT22;38721;53.098;6.596;2022-07-29T13:01:10;26.40;60.40
52859;DHT22;38721;53.098;6.596;2022-07-29T13:03:52;26.50;51.90
52859;DHT22;38721;53.098;6.596;2022-07-29T13:09:12;26.90;44.00
52859;DHT22;38721;53.098;6.596;2022-07-29T13:12:01;27.30;50.40
52859;DHT22;38721;53.098;6.596;2022-07-29T13:14:39;28.00;51.30
52859;DHT22;38721;53.098;6.596;2022-07-29T13:17:11;26.90;54.50
52859;DHT22;38721;53.098;6.596;2022-07-29T13:19:42;27.50;48.00
52859;DHT22;38721;53.098;6.596;2022-07-29T13:22:14;27.00;33.60
52859;DHT22;38721;53.098;6.596;2022-07-29T13:27:16;26.70;26.90
52859;DHT22;38721;53.098;6.596;2022-07-29T13:29:42;26.40;28.00
52859;DHT22;38721;53.098;6.596;2022-07-29T13:32:08;26.40;31.50
52859;DHT22;38721;53.098;6.596;2022-07-29T13:34:34;27.00;33.10
52859;DHT22;38721;53.098;6.596;2022-07-29T13:37:00;27.50;32.40
52859;DHT22;38721;53.098;6.596;2022-07-29T13:39:26;27.50;19.10
52859;DHT22;38721;53.098;6.596;2022-07-29T13:41:52;28.10;32.80
52859;DHT22;38721;53.098;6.596;2022-07-29T13:44:18;28.20;23.80
52859;DHT22;38721;53.098;6.596;2022-07-29T13:46:44;28.70;9.60
52859;DHT22;38721;53.098;6.596;2022-07-29T13:49:10;28.80;10.00
52859;DHT22;38721;53.098;6.596;2022-07-29T13:51:37;28.40;1.00
52859;DHT22;38721;53.098;6.596;2022-07-29T13:54:02;28.50;1.00
52859;DHT22;38721;53.098;6.596;2022-07-29T13:56:31;28.70;1.00
52859;DHT22;38721;53.098;6.596;2022-07-29T13:58:57;28.50;1.00
52859;DHT22;38721;53.098;6.596;2022-07-29T14:01:23;27.90;1.00
52859;DHT22;38721;53.098;6.596;2022-07-29T14:03:49;29.00;1.00
52859;DHT22;38721;53.098;6.596;2022-07-29T14:06:14;28.80;1.00
52859;DHT22;38721;53.098;6.596;2022-07-29T14:08:40;28.50;1.00
52859;DHT22;38721;53.098;6.596;2022-07-29T14:11:06;29.00;1.00
52859;DHT22;38721;53.098;6.596;2022-07-29T14:13:35;28.80;1.00
52859;DHT22;38721;53.098;6.596;2022-07-29T14:16:00;28.70;1.00
52859;DHT22;38721;53.098;6.596;2022-07-29T14:18:26;28.30;1.00
52859;DHT22;38721;53.098;6.596;2022-07-29T14:20:52;28.70;1.00
52859;DHT22;38721;53.098;6.596;2022-07-29T14:23:18;29.10;1.00
52859;DHT22;38721;53.098;6.596;2022-07-29T14:25:44;28.70;1.00
52859;DHT22;38721;53.098;6.596;2022-07-29T14:28:09;29.50;1.00
52859;DHT22;38721;53.098;6.596;2022-07-29T14:30:35;29.60;1.00
52859;DHT22;38721;53.098;6.596;2022-07-29T14:33:04;29.80;1.00
52859;DHT22;38721;53.098;6.596;2022-07-29T14:35:29;29.60;1.00
52859;DHT22;38721;53.098;6.596;2022-07-29T14:37:55;29.90;1.00
52859;DHT22;38721;53.098;6.596;2022-07-29T14:40:21;29.50;1.00
52859;DHT22;38721;53.098;6.596;2022-07-29T14:42:46;30.90;1.00
52859;DHT22;38721;53.098;6.596;2022-07-29T14:45:12;31.00;1.00
52859;DHT22;38721;53.098;6.596;2022-07-29T14:47:38;30.90;1.00
52859;DHT22;38721;53.098;6.596;2022-07-29T14:50:10;30.70;1.00
52859;DHT22;38721;53.098;6.596;2022-07-29T14:52:36;31.20;1.00
52859;DHT22;38721;53.098;6.596;2022-07-29T14:55:03;31.00;1.00
52859;DHT22;38721;53.098;6.596;2022-07-29T14:57:29;30.70;1.00
52859;DHT22;38721;53.098;6.596;2022-07-29T14:59:55;31.20;1.00
52859;DHT22;38721;53.098;6.596;2022-07-29T15:02:21;30.80;1.00
52859;DHT22;38721;53.098;6.596;2022-07-29T15:04:46;31.50;1.00
52859;DHT22;38721;53.098;6.596;2022-07-29T15:07:14;32.00;1.00
52859;DHT22;38721;53.098;6.596;2022-07-29T15:09:40;32.10;1.00
52859;DHT22;38721;53.098;6.596;2022-07-29T15:12:06;31.40;1.00
52859;DHT22;38721;53.098;6.596;2022-07-29T15:14:32;30.60;1.00
52859;DHT22;38721;53.098;6.596;2022-07-29T15:16:58;31.90;1.00
52859;DHT22;38721;53.098;6.596;2022-07-29T15:19:26;32.30;1.00
52859;DHT22;38721;53.098;6.596;2022-07-29T15:21:52;32.10;1.00
52859;DHT22;38721;53.098;6.596;2022-07-29T15:24:18;32.70;1.00
52859;DHT22;38721;53.098;6.596;2022-07-29T15:26:45;33.30;1.00
52859;DHT22;38721;53.098;6.596;2022-07-29T15:29:11;33.40;1.00
52859;DHT22;38721;53.098;6.596;2022-07-29T15:31:37;33.80;1.00
52859;DHT22;38721;53.098;6.596;2022-07-29T15:34:06;34.30;1.00
52859;DHT22;38721;53.098;6.596;2022-07-29T15:36:32;33.90;1.00
52859;DHT22;38721;53.098;6.596;2022-07-29T15:38:58;35.10;1.00
52859;DHT22;38721;53.098;6.596;2022-07-29T15:41:24;35.50;1.00
52859;DHT22;38721;53.098;6.596;2022-07-29T15:43:49;34.00;1.00
52859;DHT22;38721;53.098;6.596;2022-07-29T15:46:17;34.30;1.00
52859;DHT22;38721;53.098;6.596;2022-07-29T15:49:04;34.60;1.00
52859;DHT22;38721;53.098;6.596;2022-07-29T15:51:30;35.80;1.00
52859;DHT22;38721;53.098;6.596;2022-07-29T15:53:56;35.90;1.00
52859;DHT22;38721;53.098;6.596;2022-07-29T15:56:22;36.60;1.00
52859;DHT22;38721;53.098;6.596;2022-07-29T15:58:48;37.20;1.00
52859;DHT22;38721;53.098;6.596;2022-07-29T16:01:14;36.30;1.00
52859;DHT22;38721;53.098;6.596;2022-07-29T16:03:43;36.30;1.00
52859;DHT22;38721;53.098;6.596;2022-07-29T16:06:09;35.10;1.00
52859;DHT22;38721;53.098;6.596;2022-07-29T16:08:34;35.30;1.00
52859;DHT22;38721;53.098;6.596;2022-07-29T16:11:00;36.30;1.00
52859;DHT22;38721;53.098;6.596;2022-07-29T16:13:26;36.70;1.00
52859;DHT22;38721;53.098;6.596;2022-07-29T16:15:52;35.90;1.00
52859;DHT22;38721;53.098;6.596;2022-07-29T16:18:17;35.90;1.00
52859;DHT22;38721;53.098;6.596;2022-07-29T16:20:43;35.90;1.00
52859;DHT22;38721;53.098;6.596;2022-07-29T16:23:09;36.20;1.00
52859;DHT22;38721;53.098;6.596;2022-07-29T16:25:38;36.00;1.00
52859;DHT22;38721;53.098;6.596;2022-07-29T16:28:04;35.90;1.00
52859;DHT22;38721;53.098;6.596;2022-07-29T16:30:30;36.60;1.00
52859;DHT22;38721;53.098;6.596;2022-07-29T16:32:56;36.30;1.00